Sioux Gateway Col. Bud Day Field
KSUX : rendu visible

Aérodrome :











RETROUVEZ-NOUS SUR...

 
LOGIN :

S'inscrire | Disclaimer

   EN    FR    IT 

 









Légende :    VFR   VFR Marginal   IFR   IFR Intensif   IFR Très Intensif
Visi : 
Plafond : 
>= 8 km
>= 3000ft
5 à 8 km
1000 à 3000 ft
1500m à 5 km
500 à 1000 ft
800 à 1500m
200 à 500 ft
< 800m
< 200 ft
Symboles :   Orages  Brouillard  Fortes neiges  Fortes précipitations  Vent > 20 kt






- Altitude de l'aérodrome : 1098 ft
- Code IATA : SUX


KSUX - Sioux Gateway Col. Bud Day Field

DERNIER METAR :
  • 162352Z 14005KT 10SM CLR 09/01 A2994 RMK AO2 SLP146 T00890011 10122 20089 53013

METARs EXPIRÉS :
  • 162252Z 15006KT 10SM CLR 10/01 A2992 RMK AO2 SLP138 T01000006
  • 162152Z 19009KT 10SM CLR 12/01 A2991 RMK AO2 SLP134 T01170006

TAF KSUX
Valide du 17 à 00h jusqu'au 18 à 00h UTC


162322Z 1700/1724 16007KT P6SM OVC120
FM170300 25007KT P6SM VCSH OVC050
FM170900 32010KT P6SM OVC030
FM171400 31010KT P6SM BKN025
FM172100 31010KT P6SM SCT120



MET'MAP, la Météo Aéronautique d'un coup d'oeil ! - Copyright ORBIFLY Décembre 2007 - Disclaimer

ORBIFLY MET'MAP TEAM :

Programmation & Développement : Alexandra Zaïnal
Conception & Développement : Baudouin d'Aumeries
Co-Programmation & Développement : Marc-Olivier Méhu
Soutien technique & logistique : Manuel Goepfert

Contact : metmap@orbifly.com




SOURCES & CREDITS :

   NOAA       Earth
Advisory